EmailTwitter


Surface observations / Quebec / CYUL (71627)

Regions: Quebec | Canada | USA | Europe | France | UK | Elsewhere
Station
Display
Info & Location for CYUL (71627) | Help decoding METAR

Weather Conditions observed on 2020/07/13 at 20:00 UTC at MONTREAL INTL A, QB (CYUL)

Sky conditions: partly cloudy.

Temperature: 27.0 Celsius.

Dewpoint: 16.0 Celsius.

Relative Humidity: 51%

Humidex: 32.

Winds: West at 17 km/h or 9 knots.

Mean Sea level Pressure: 100.80 kilopascals.

Altimeter Setting (QNH): 100.78 kilopascals or 29.76 inches of mercury.

Horizontal visibility: 30.00 statute miles or 48.00 kilometers.

Height of the Ceiling: 3353 metres ( 11000 feet ).

Coded METAR:

CYUL 132000Z 28009KT 240V300 30SM SCT045 BKN110 BKN240 27/16 A2976 RMK

CU3AC2CI2 SLP080 DENSITY ALT 1700FT=